Time;durP1;ratioP1;P1;durP2;ratioP2;P2;SDS_P1;SDS_P2;PMS_P1;PMS_P2;Temp;Humidity;BMP_temperature;BMP_pressure;BME280_temperature;BME280_humidity;BME280_pressure;Samples;Min_cycle;Max_cycle;Signal;HPM_P1;HPM_P2
2021/08/22 04:31:32;;;;;;;13.57;11.67;;;15.90;99.90;;;;;;2601619;54;20015;31
2021/08/22 06:53:20;;;;;;;12.73;8.43;;;20.30;99.90;;;;;;2603344;54;20896;31
2021/08/22 06:56:58;;;;;;;10.88;8.30;;;20.50;99.90;;;;;;2603536;46;20023;31
2021/08/22 07:00:06;;;;;;;11.27;9.48;;;20.80;99.90;;;;;;2603332;47;20910;31
2021/08/22 07:16:34;;;;;;;8.35;7.38;;;22.00;99.90;;;;;;2602667;54;20129;31
2021/08/22 07:19:45;;;;;;;8.23;7.43;;;22.30;99.90;;;;;;2603348;47;20882;31
2021/08/22 07:22:34;;;;;;;7.70;6.90;;;22.60;99.90;;;;;;2603453;46;20886;31
2021/08/22 07:25:46;;;;;;;9.60;7.50;;;22.90;99.90;;;;;;2603320;47;20890;31
2021/08/22 07:28:42;;;;;;;9.32;6.90;;;23.10;99.90;;;;;;2603239;47;20810;31
2021/08/22 07:31:27;;;;;;;10.98;7.30;;;23.30;99.90;;;;;;2602668;47;20018;31
2021/08/22 07:34:02;;;;;;;7.32;6.57;;;23.50;99.90;;;;;;2603443;47;20033;31
2021/08/22 07:36:34;;;;;;;7.90;6.32;;;23.70;99.90;;;;;;2603397;47;20033;31
2021/08/22 07:39:11;;;;;;;6.95;5.95;;;24.00;99.90;;;;;;2603292;47;20864;31
2021/08/22 07:41:55;;;;;;;10.00;7.15;;;24.30;99.90;;;;;;2602613;47;20043;31
2021/08/22 07:44:41;;;;;;;8.05;5.80;;;24.50;99.90;;;;;;2602740;47;20803;31
2021/08/22 07:47:18;;;;;;;6.15;5.50;;;24.60;99.90;;;;;;2602533;47;20023;31
2021/08/22 07:49:51;;;;;;;6.45;5.85;;;24.80;99.90;;;;;;2602864;47;20042;31
2021/08/22 07:52:29;;;;;;;9.05;5.63;;;25.00;99.90;;;;;;2603298;47;20076;31
2021/08/22 07:55:36;;;;;;;5.75;5.15;;;25.20;99.90;;;;;;2603112;47;20905;31
2021/08/22 07:58:40;;;;;;;7.30;5.43;;;25.50;99.90;;;;;;2603088;47;20022;31
2021/08/22 08:01:34;;;;;;;;;;;;;;;;;;;;;
2021/08/22 08:04:57;;;;;;;6.68;4.95;;;25.70;99.90;;;;;;2603116;47;20022;31
2021/08/22 08:07:45;;;;;;;5.72;4.43;;;25.90;99.90;;;;;;2603287;47;20030;31
2021/08/22 08:10:41;;;;;;;5.07;4.38;;;26.10;99.90;;;;;;2603590;47;20910;31
2021/08/22 08:13:37;;;;;;;5.90;4.95;;;26.40;99.90;;;;;;2603471;47;20097;31
2021/08/22 08:16:35;;;;;;;6.15;4.60;;;26.50;99.90;;;;;;2603196;47;20051;31
2021/08/22 08:19:24;;;;;;;6.15;4.70;;;26.30;99.90;;;;;;2603055;47;20030;31
2021/08/22 08:22:23;;;;;;;5.20;4.70;;;26.10;99.90;;;;;;2602937;47;20157;31
2021/08/22 08:25:18;;;;;;;5.80;4.50;;;26.00;99.90;;;;;;2602985;47;20242;31
2021/08/22 08:28:19;;;;;;;6.13;4.60;;;26.00;99.90;;;;;;2602995;47;20029;31
2021/08/22 08:31:02;;;;;;;4.23;3.70;;;26.10;99.90;;;;;;2603109;47;20030;31
2021/08/22 08:33:43;;;;;;;4.43;4.03;;;26.20;99.90;;;;;;2602987;47;20254;31
2021/08/22 08:36:20;;;;;;;5.00;3.95;;;26.30;99.90;;;;;;2603022;47;20026;31
2021/08/22 08:39:33;;;;;;;;;;;;;;;;;;;;;
2021/08/22 08:42:27;;;;;;;4.27;3.60;;;26.80;99.90;;;;;;2603593;47;20895;31
2021/08/22 08:49:12;;;;;;;5.50;3.40;;;27.20;99.90;;;;;;2603582;46;19935;31
2021/08/22 08:52:21;;;;;;;5.90;4.30;;;27.50;99.90;;;;;;2603967;46;20019;31
2021/08/22 08:55:26;;;;;;;3.95;3.45;;;27.50;99.90;;;;;;2603914;46;20091;31
2021/08/22 08:58:05;;;;;;;4.47;3.50;;;27.50;99.90;;;;;;2603969;46;20031;31
2021/08/22 09:00:43;;;;;;;4.15;3.33;;;27.60;99.90;;;;;;2603831;46;20859;31
2021/08/22 09:03:34;;;;;;;4.00;3.30;;;27.90;99.90;;;;;;2603977;46;20086;31
2021/08/22 09:06:57;;;;;;;4.88;3.55;;;28.10;99.90;;;;;;2603871;46;20090;31
2021/08/22 09:10:36;;;;;;;4.15;3.45;;;28.30;99.90;;;;;;2603956;46;20033;31
2021/08/22 09:13:46;;;;;;;6.47;3.17;;;28.60;99.90;;;;;;2604016;46;20886;31
2021/08/22 09:16:57;;;;;;;3.88;3.30;;;28.80;99.90;;;;;;2603639;54;20987;31
2021/08/22 09:19:56;;;;;;;4.63;3.65;;;28.80;99.90;;;;;;2603833;46;20944;31
2021/08/22 09:22:39;;;;;;;4.65;3.15;;;28.90;99.90;;;;;;2603803;46;19934;31
2021/08/22 09:25:37;;;;;;;4.30;3.00;;;29.10;99.90;;;;;;2603911;46;20097;31
2021/08/22 09:29:00;;;;;;;6.72;3.00;;;29.20;99.90;;;;;;2603942;46;20073;31
2021/08/22 09:32:15;;;;;;;5.38;3.15;;;29.30;98.80;;;;;;2603752;46;20090;31
2021/08/22 09:35:16;;;;;;;3.55;2.92;;;29.30;97.60;;;;;;2603749;46;20045;31
2021/08/22 09:38:17;;;;;;;3.23;2.93;;;29.10;98.40;;;;;;2603791;46;20026;31
2021/08/22 09:41:01;;;;;;;4.10;2.70;;;29.00;99.10;;;;;;2603811;46;20042;31
2021/08/22 09:43:48;;;;;;;2.80;2.60;;;29.10;97.20;;;;;;2603797;46;20026;31
2021/08/22 09:46:59;;;;;;;3.85;2.60;;;29.10;97.20;;;;;;2603879;46;19954;31
2021/08/22 09:50:03;;;;;;;4.53;2.93;;;29.20;97.80;;;;;;2603950;46;20054;31
2021/08/22 09:52:53;;;;;;;2.92;2.65;;;29.30;97.60;;;;;;2603764;46;20100;31
2021/08/22 09:56:07;;;;;;;4.18;2.40;;;29.40;97.80;;;;;;2603754;46;20788;31
2021/08/22 09:59:01;;;;;;;4.50;2.50;;;29.40;97.20;;;;;;2603698;46;20034;31
2021/08/22 10:01:53;;;;;;;2.53;2.08;;;29.50;97.30;;;;;;2603819;46;20918;31
2021/08/22 10:05:14;;;;;;;5.22;2.17;;;29.50;95.60;;;;;;2603821;46;20065;31
2021/08/22 10:08:34;;;;;;;3.28;2.42;;;29.60;95.90;;;;;;2603601;46;20867;31
2021/08/22 10:11:27;;;;;;;3.97;2.90;;;29.70;95.70;;;;;;2603863;46;20073;31
2021/08/22 10:14:18;;;;;;;3.63;3.00;;;30.00;95.80;;;;;;2603711;46;20903;31
2021/08/22 10:16:53;;;;;;;3.10;2.80;;;30.00;95.60;;;;;;2603663;46;20156;31
2021/08/22 10:19:47;;;;;;;3.33;2.67;;;30.00;95.20;;;;;;2603683;46;20892;31
2021/08/22 10:22:32;;;;;;;3.85;2.35;;;29.90;95.40;;;;;;2603570;46;20855;31
2021/08/22 10:25:20;;;;;;;2.92;2.55;;;29.70;95.00;;;;;;2603619;46;20026;31
2021/08/22 10:28:07;;;;;;;2.63;2.33;;;29.60;94.80;;;;;;2603676;46;20089;31
2021/08/22 10:30:44;;;;;;;5.07;2.70;;;29.60;94.60;;;;;;2603595;46;20132;31
2021/08/22 10:33:33;;;;;;;3.28;2.40;;;29.30;94.70;;;;;;2603604;46;20882;31
2021/08/22 10:36:28;;;;;;;4.05;2.40;;;29.30;94.90;;;;;;2603622;46;20069;31
2021/08/22 10:39:23;;;;;;;3.65;2.45;;;29.20;94.80;;;;;;2603548;47;20008;31
2021/08/22 10:42:18;;;;;;;2.60;1.95;;;29.10;94.90;;;;;;2603492;54;20030;31
2021/08/22 10:45:16;;;;;;;4.47;2.50;;;29.10;95.50;;;;;;2603456;46;21157;31
2021/08/22 10:48:00;;;;;;;3.08;2.20;;;29.10;96.10;;;;;;2603619;46;20034;31
2021/08/22 10:51:07;;;;;;;2.42;2.22;;;29.10;96.00;;;;;;2603604;46;20967;31
2021/08/22 10:53:40;;;;;;;2.90;2.60;;;29.20;95.90;;;;;;2603615;46;20026;31
2021/08/22 10:56:29;;;;;;;6.13;2.47;;;29.10;95.90;;;;;;2603529;47;20027;31
2021/08/22 10:59:08;;;;;;;3.00;2.50;;;29.10;96.20;;;;;;2603821;46;20029;31
2021/08/22 11:01:46;;;;;;;2.42;2.20;;;29.00;96.50;;;;;;2603155;46;21300;31
2021/08/22 11:04:23;;;;;;;;;;;29.00;96.40;;;;;;2603698;46;20887;31
2021/08/22 11:07:07;;;;;;;3.50;2.40;;;29.00;96.50;;;;;;2603503;46;20017;31
2021/08/22 11:09:56;;;;;;;6.40;2.28;;;29.20;97.10;;;;;;2603542;46;20838;31
2021/08/22 11:12:40;;;;;;;3.00;2.15;;;29.30;97.10;;;;;;2603605;47;20030;31
2021/08/22 11:15:28;;;;;;;2.38;1.88;;;29.50;96.60;;;;;;2603406;46;20126;31
2021/08/22 11:18:06;;;;;;;3.03;2.10;;;29.60;95.80;;;;;;2603450;47;20110;31
2021/08/22 11:21:05;;;;;;;2.40;2.00;;;29.80;95.60;;;;;;2603298;47;20033;31
2021/08/22 11:23:45;;;;;;;3.85;2.10;;;29.80;95.10;;;;;;2603408;46;20026;31
2021/08/22 11:26:32;;;;;;;2.67;2.15;;;29.70;95.30;;;;;;2603573;46;20824;31
2021/08/22 11:29:29;;;;;;;2.53;1.85;;;29.40;95.40;;;;;;2603395;47;20022;31
2021/08/22 11:32:09;;;;;;;2.00;1.80;;;29.30;96.50;;;;;;2603469;46;20829;31
2021/08/22 11:34:47;;;;;;;3.25;2.15;;;29.30;95.90;;;;;;2603389;47;20073;31
2021/08/22 11:37:27;;;;;;;3.95;2.30;;;29.30;95.50;;;;;;2603310;47;20033;31
2021/08/22 11:40:24;;;;;;;2.35;2.00;;;29.50;95.80;;;;;;2603518;47;21004;31
2021/08/22 11:43:08;;;;;;;2.22;1.90;;;29.60;95.70;;;;;;2603444;47;20034;31
2021/08/22 11:45:51;;;;;;;4.00;2.20;;;29.60;95.10;;;;;;2603447;47;20030;31
2021/08/22 11:48:31;;;;;;;2.30;1.90;;;29.80;95.90;;;;;;2603588;47;20030;31
2021/08/22 11:51:05;;;;;;;2.42;2.00;;;29.80;95.80;;;;;;2603297;47;20031;31
2021/08/22 11:53:45;;;;;;;2.40;2.20;;;29.80;95.30;;;;;;2603492;47;20026;31
2021/08/22 11:56:28;;;;;;;2.50;2.30;;;29.80;95.00;;;;;;2603298;47;20022;31
2021/08/22 11:59:28;;;;;;;3.33;2.00;;;29.70;94.80;;;;;;2603212;47;20065;31
2021/08/22 12:02:20;;;;;;;2.55;1.90;;;29.60;95.00;;;;;;2603555;47;20042;31
2021/08/22 12:05:21;;;;;;;2.60;2.10;;;29.60;94.90;;;;;;2603278;47;20888;31
2021/08/22 12:08:16;;;;;;;4.72;2.20;;;29.60;95.60;;;;;;2603236;47;20034;31
2021/08/22 12:11:22;;;;;;;3.43;2.40;;;29.60;95.70;;;;;;2603375;47;20035;31
2021/08/22 12:14:20;;;;;;;3.35;2.20;;;29.60;95.70;;;;;;2603385;47;20030;31
2021/08/22 12:16:58;;;;;;;4.03;2.10;;;29.70;94.60;;;;;;2603595;47;20069;31
2021/08/22 12:19:44;;;;;;;4.25;1.98;;;29.70;95.20;;;;;;2604092;46;20255;31
2021/08/22 12:22:46;;;;;;;;;;;29.70;96.10;;;;;;2604308;46;20030;31
2021/08/22 12:25:30;;;;;;;2.70;1.85;;;29.60;94.60;;;;;;2603246;46;20738;31
2021/08/22 12:28:26;;;;;;;2.92;1.77;;;29.50;95.60;;;;;;2603918;46;20031;31
2021/08/22 12:31:06;;;;;;;3.00;1.55;;;29.40;94.90;;;;;;2604069;46;20030;31
2021/08/22 12:33:43;;;;;;;5.53;2.22;;;29.30;95.20;;;;;;2603337;46;20038;31
2021/08/22 12:39:55;;;;;;;6.38;2.30;;;29.10;95.30;;;;;;2604069;46;20878;31
2021/08/22 12:42:40;;;;;;;3.80;2.20;;;28.80;95.40;;;;;;2604144;46;20030;31
2021/08/22 12:45:18;;;;;;;2.60;1.92;;;28.80;95.70;;;;;;2603319;46;20019;31
2021/08/22 12:47:52;;;;;;;4.63;2.20;;;28.60;95.50;;;;;;2603900;46;20027;31
2021/08/22 12:50:36;;;;;;;3.58;2.30;;;28.40;96.30;;;;;;2702605;39;21110;31
2021/08/22 12:53:31;;;;;;;3.83;2.00;;;28.20;96.50;;;;;;2603929;46;20027;31
2021/08/22 12:56:23;;;;;;;3.90;2.40;;;28.00;97.00;;;;;;2603916;46;20030;31
2021/08/22 12:59:08;;;;;;;3.08;2.30;;;27.90;97.30;;;;;;2604168;46;20026;31
2021/08/22 13:01:53;;;;;;;3.45;2.63;;;27.60;99.40;;;;;;2603990;46;20081;31
2021/08/22 13:04:27;;;;;;;5.75;3.42;;;27.30;99.90;;;;;;2603901;46;20886;31
2021/08/22 13:07:04;;;;;;;6.45;3.20;;;26.90;99.90;;;;;;2603675;46;20877;31
2021/08/22 13:09:37;;;;;;;7.60;3.60;;;26.40;99.90;;;;;;2604073;46;20037;31
2021/08/22 13:12:13;;;;;;;6.00;3.22;;;25.90;99.90;;;;;;2603931;46;20037;31
2021/08/22 13:14:46;;;;;;;6.43;3.20;;;25.50;99.90;;;;;;2603628;46;20029;31
2021/08/22 13:17:19;;;;;;;5.45;3.17;;;25.00;99.90;;;;;;2603648;46;20180;31
2021/08/22 13:19:52;;;;;;;6.55;3.70;;;24.50;99.90;;;;;;2603777;46;20038;31
2021/08/22 13:22:24;;;;;;;8.27;3.70;;;24.10;99.90;;;;;;2603519;54;25016;31
2021/08/22 13:24:56;;;;;;;5.35;3.15;;;23.70;99.90;;;;;;2603860;46;20934;31
2021/08/22 13:27:26;;;;;;;5.65;3.35;;;23.40;99.90;;;;;;2603544;54;20042;31
2021/08/22 13:29:57;;;;;;;4.05;3.10;;;23.10;99.90;;;;;;2603878;46;20033;31
2021/08/22 13:32:28;;;;;;;8.52;4.85;;;22.80;99.90;;;;;;2603623;47;20846;31
2021/08/22 13:35:21;;;;;;;16.53;4.93;;;22.60;99.90;;;;;;2603738;46;20031;31
2021/08/22 13:37:51;;;;;;;12.95;4.40;;;22.30;99.90;;;;;;2603827;46;20330;31
2021/08/22 13:40:23;;;;;;;6.22;4.03;;;22.20;99.90;;;;;;2603837;46;21163;31
2021/08/22 13:42:57;;;;;;;7.15;3.35;;;22.10;99.90;;;;;;2603865;46;20085;31
2021/08/22 13:45:30;;;;;;;8.93;4.55;;;22.00;99.90;;;;;;2603750;46;20022;31
2021/08/22 13:48:02;;;;;;;11.55;5.53;;;22.00;99.90;;;;;;2603197;46;20038;31
2021/08/22 13:50:34;;;;;;;11.80;5.25;;;21.90;99.90;;;;;;2603479;54;20112;31
2021/08/22 13:53:06;;;;;;;6.20;3.95;;;21.80;99.90;;;;;;2603790;46;20026;31
2021/08/22 13:55:38;;;;;;;5.80;4.22;;;21.90;99.90;;;;;;2603648;47;20077;31
2021/08/22 13:58:10;;;;;;;9.23;4.40;;;21.90;99.90;;;;;;2603853;46;20053;31
2021/08/22 14:00:43;;;;;;;6.20;3.58;;;21.90;99.90;;;;;;2603922;46;20053;31
2021/08/22 14:03:18;;;;;;;4.63;3.30;;;22.00;99.90;;;;;;2603939;46;20081;31
2021/08/22 14:05:50;;;;;;;6.80;3.05;;;22.00;99.90;;;;;;2603783;46;20038;31
2021/08/22 14:08:22;;;;;;;6.45;3.40;;;22.00;99.90;;;;;;2603295;46;20116;31
2021/08/22 14:10:56;;;;;;;7.47;3.42;;;22.00;99.90;;;;;;2603775;46;20933;31
2021/08/22 14:13:30;;;;;;;4.28;2.95;;;22.00;99.90;;;;;;2603850;46;20081;31
2021/08/22 14:16:01;;;;;;;4.72;3.92;;;22.10;99.90;;;;;;2603612;46;20864;31
2021/08/22 14:18:33;;;;;;;4.72;3.75;;;22.10;99.90;;;;;;2603093;46;20037;31
2021/08/22 14:21:08;;;;;;;4.25;3.55;;;22.10;99.90;;;;;;2603939;46;20030;31
2021/08/22 14:23:40;;;;;;;5.40;4.53;;;22.00;99.90;;;;;;2603684;46;20094;31
2021/08/22 14:26:12;;;;;;;6.47;4.43;;;22.00;99.90;;;;;;2604059;46;21214;31
2021/08/22 14:28:48;;;;;;;4.75;3.97;;;21.90;99.90;;;;;;2603533;46;20034;31
2021/08/22 14:31:20;;;;;;;11.55;4.25;;;21.80;99.90;;;;;;2603433;54;20026;31
2021/08/22 14:33:52;;;;;;;5.82;3.60;;;21.90;99.90;;;;;;2603685;46;20038;31
2021/08/22 14:36:24;;;;;;;4.82;3.30;;;22.00;99.90;;;;;;2603638;46;20975;31
2021/08/22 14:38:57;;;;;;;4.90;3.72;;;22.00;99.90;;;;;;2603258;54;20034;31
2021/08/22 14:41:29;;;;;;;5.63;3.78;;;21.90;99.90;;;;;;2603589;47;20891;31
2021/08/22 14:50:41;;;;;;;5.33;3.43;;;22.00;99.90;;;;;;2602939;54;20042;31
2021/08/22 14:53:44;;;;;;;5.43;3.67;;;22.00;99.90;;;;;;2603605;46;20061;31
2021/08/22 14:56:27;;;;;;;5.97;3.60;;;22.20;99.90;;;;;;2603599;46;20085;31
2021/08/22 14:58:58;;;;;;;4.25;2.70;;;22.20;99.90;;;;;;2603432;46;20940;31
2021/08/22 15:01:33;;;;;;;4.03;2.92;;;22.20;99.90;;;;;;2602774;47;20042;31
2021/08/22 15:04:05;;;;;;;3.50;2.78;;;22.30;99.90;;;;;;2603354;54;20086;31
2021/08/22 15:06:37;;;;;;;4.65;2.60;;;22.30;99.90;;;;;;2603453;46;20089;31
2021/08/22 15:09:13;;;;;;;3.03;2.17;;;22.40;99.90;;;;;;2603567;46;20900;31
2021/08/22 15:11:53;;;;;;;24.55;7.80;;;22.40;99.90;;;;;;2603809;46;20081;31
2021/08/22 15:14:24;;;;;;;19.70;7.07;;;22.50;99.90;;;;;;2603561;46;20046;31
2021/08/22 15:17:02;;;;;;;3.83;2.77;;;22.50;99.90;;;;;;2602729;47;20926;31
2021/08/22 15:19:34;;;;;;;3.83;2.50;;;22.50;99.90;;;;;;2602974;46;20042;31
2021/08/22 15:22:05;;;;;;;3.15;2.10;;;22.50;99.90;;;;;;2603343;47;20050;31
2021/08/22 15:24:36;;;;;;;5.63;2.80;;;22.60;99.90;;;;;;2603636;47;20143;31
2021/08/22 15:27:06;;;;;;;4.38;2.53;;;22.50;99.90;;;;;;2603160;54;20916;31
2021/08/22 15:29:37;;;;;;;3.97;2.70;;;22.50;99.90;;;;;;2603421;47;20979;31
2021/08/22 15:32:08;;;;;;;3.00;2.53;;;22.40;99.90;;;;;;2603417;47;20030;31
2021/08/22 15:34:39;;;;;;;3.97;2.60;;;22.40;99.90;;;;;;2603502;46;20022;31
2021/08/22 15:37:11;;;;;;;5.32;3.17;;;22.40;99.90;;;;;;2603342;47;20093;31
2021/08/22 15:39:41;;;;;;;4.55;3.05;;;22.30;99.90;;;;;;2603518;47;20034;31
2021/08/22 15:42:13;;;;;;;4.85;3.00;;;22.40;99.90;;;;;;2603410;47;20090;31
2021/08/22 15:44:43;;;;;;;3.67;2.97;;;22.30;99.90;;;;;;2603456;47;20089;31
2021/08/22 15:47:14;;;;;;;5.38;3.22;;;22.40;99.90;;;;;;2603278;47;20034;31
2021/08/22 15:49:45;;;;;;;5.90;2.73;;;22.40;99.90;;;;;;2603097;54;20026;31
2021/08/22 15:52:17;;;;;;;4.32;3.10;;;22.30;99.90;;;;;;2604085;46;20094;31
2021/08/22 15:54:47;;;;;;;5.95;3.30;;;22.30;99.90;;;;;;2604296;46;20893;31
2021/08/22 15:57:21;;;;;;;6.72;3.33;;;22.20;99.90;;;;;;2603912;46;20896;31
2021/08/22 15:59:51;;;;;;;4.80;3.17;;;22.20;99.90;;;;;;2603984;46;20086;31
2021/08/22 16:02:23;;;;;;;6.10;3.45;;;22.20;99.90;;;;;;2603860;54;20030;31
2021/08/22 16:04:53;;;;;;;4.87;4.00;;;22.20;99.90;;;;;;2603985;46;20085;31
2021/08/22 16:07:25;;;;;;;6.38;3.50;;;22.10;99.90;;;;;;2603938;54;21078;31
2021/08/22 16:09:56;;;;;;;6.80;4.05;;;22.10;99.90;;;;;;2604420;46;20092;31
2021/08/22 16:12:26;;;;;;;4.55;2.70;;;22.10;99.90;;;;;;2604401;46;20086;31
2021/08/22 16:14:58;;;;;;;6.83;5.00;;;22.10;99.90;;;;;;2603954;46;20949;31
2021/08/22 16:17:30;;;;;;;5.05;3.80;;;22.10;99.90;;;;;;2604060;46;20027;31
2021/08/22 16:20:01;;;;;;;7.20;4.13;;;22.10;99.90;;;;;;2603399;46;20046;31
2021/08/22 16:22:33;;;;;;;5.13;3.55;;;22.10;99.90;;;;;;2604136;46;20849;31
2021/08/22 16:25:05;;;;;;;5.90;4.13;;;22.10;99.90;;;;;;2603939;46;20963;31
2021/08/22 16:27:35;;;;;;;6.60;4.45;;;22.20;99.90;;;;;;2603914;46;20125;31
2021/08/22 16:30:07;;;;;;;5.13;4.63;;;22.10;99.90;;;;;;2603842;46;20026;31
2021/08/22 16:32:39;;;;;;;5.55;3.97;;;22.10;99.90;;;;;;2604059;46;20922;31
2021/08/22 16:35:10;;;;;;;5.63;4.63;;;22.10;99.90;;;;;;2603874;46;20030;31
2021/08/22 16:37:42;;;;;;;4.50;3.20;;;22.00;99.90;;;;;;2603803;46;20046;31
2021/08/22 16:40:14;;;;;;;5.37;3.33;;;22.00;99.90;;;;;;2604158;46;20034;31
2021/08/22 16:42:46;;;;;;;4.00;2.85;;;21.90;99.90;;;;;;2603829;46;20026;31
2021/08/22 16:45:17;;;;;;;3.08;2.70;;;21.90;99.90;;;;;;2603927;46;20030;31
2021/08/22 16:47:48;;;;;;;4.47;2.95;;;21.90;99.90;;;;;;2603701;54;20042;31
2021/08/22 16:50:20;;;;;;;4.22;2.47;;;21.90;99.90;;;;;;2603614;54;20053;31
2021/08/22 16:52:50;;;;;;;4.85;2.90;;;21.90;99.90;;;;;;2604020;46;20054;31
